sensor_id;sensor_type;location;lat;lon;timestamp;pressure;altitude;pressure_sealevel;temperature;humidity
34034;BME280;63481;52.588;22.472;2023-02-28T00:00:19;101700.67;;;-1.79;75.78
34034;BME280;63481;52.588;22.472;2023-02-28T00:01:21;101702.77;;;-1.86;75.53
34034;BME280;63481;52.588;22.472;2023-02-28T00:02:14;101705.01;;;-1.91;75.42
34034;BME280;63481;52.588;22.472;2023-02-28T00:03:07;101703.13;;;-1.94;75.99
34034;BME280;63481;52.588;22.472;2023-02-28T00:04:01;101706.82;;;-1.95;76.71
34034;BME280;63481;52.588;22.472;2023-02-28T00:04:53;101700.98;;;-1.97;76.73
34034;BME280;63481;52.588;22.472;2023-02-28T00:05:53;101705.42;;;-1.95;76.41
34034;BME280;63481;52.588;22.472;2023-02-28T00:06:46;101702.41;;;-1.97;76.25
34034;BME280;63481;52.588;22.472;2023-02-28T00:07:39;101705.69;;;-1.91;76.70
34034;BME280;63481;52.588;22.472;2023-02-28T00:08:32;101702.30;;;-1.92;76.64
34034;BME280;63481;52.588;22.472;2023-02-28T00:09:25;101698.88;;;-1.93;76.71
34034;BME280;63481;52.588;22.472;2023-02-28T00:10:21;101699.23;;;-1.97;77.19
34034;BME280;63481;52.588;22.472;2023-02-28T00:11:16;101697.67;;;-1.96;77.47
34034;BME280;63481;52.588;22.472;2023-02-28T00:12:09;101699.98;;;-1.97;77.57
34034;BME280;63481;52.588;22.472;2023-02-28T00:13:04;101698.96;;;-1.92;76.98
34034;BME280;63481;52.588;22.472;2023-02-28T00:13:58;101701.41;;;-1.89;76.93
34034;BME280;63481;52.588;22.472;2023-02-28T00:14:51;101699.45;;;-1.85;76.56
34034;BME280;63481;52.588;22.472;2023-02-28T00:15:43;101700.70;;;-1.89;76.42
34034;BME280;63481;52.588;22.472;2023-02-28T00:16:37;101700.77;;;-1.93;75.95
34034;BME280;63481;52.588;22.472;2023-02-28T00:17:30;101700.36;;;-1.92;76.05
34034;BME280;63481;52.588;22.472;2023-02-28T00:18:23;101700.98;;;-1.94;76.11
34034;BME280;63481;52.588;22.472;2023-02-28T00:19:15;101701.58;;;-1.98;76.11
34034;BME280;63481;52.588;22.472;2023-02-28T00:20:10;101698.94;;;-2.00;76.23
34034;BME280;63481;52.588;22.472;2023-02-28T00:21:05;101701.13;;;-1.99;76.67
34034;BME280;63481;52.588;22.472;2023-02-28T00:21:57;101699.27;;;-1.97;76.63
34034;BME280;63481;52.588;22.472;2023-02-28T00:22:52;101698.54;;;-1.99;76.41
34034;BME280;63481;52.588;22.472;2023-02-28T00:23:45;101699.92;;;-1.99;75.96
34034;BME280;63481;52.588;22.472;2023-02-28T00:24:38;101699.35;;;-1.98;76.14
34034;BME280;63481;52.588;22.472;2023-02-28T00:25:31;101700.61;;;-1.93;76.40
34034;BME280;63481;52.588;22.472;2023-02-28T00:26:23;101699.92;;;-1.90;76.48
34034;BME280;63481;52.588;22.472;2023-02-28T00:27:17;101704.96;;;-1.93;76.91
34034;BME280;63481;52.588;22.472;2023-02-28T00:28:10;101707.06;;;-1.96;76.53
34034;BME280;63481;52.588;22.472;2023-02-28T00:29:02;101707.89;;;-1.93;76.88
34034;BME280;63481;52.588;22.472;2023-02-28T00:29:55;101708.52;;;-1.92;76.82
34034;BME280;63481;52.588;22.472;2023-02-28T00:30:48;101708.17;;;-1.92;76.05
34034;BME280;63481;52.588;22.472;2023-02-28T00:31:40;101711.54;;;-1.89;76.14
34034;BME280;63481;52.588;22.472;2023-02-28T00:32:35;101713.41;;;-1.86;76.65
34034;BME280;63481;52.588;22.472;2023-02-28T00:33:28;101713.42;;;-1.83;76.64
34034;BME280;63481;52.588;22.472;2023-02-28T00:34:21;101713.30;;;-1.81;76.41
34034;BME280;63481;52.588;22.472;2023-02-28T00:35:14;101714.67;;;-1.81;75.91
34034;BME280;63481;52.588;22.472;2023-02-28T00:36:10;101715.10;;;-1.85;75.57
34034;BME280;63481;52.588;22.472;2023-02-28T00:37:08;101713.98;;;-1.86;76.21
34034;BME280;63481;52.588;22.472;2023-02-28T00:38:01;101714.02;;;-1.84;75.53
34034;BME280;63481;52.588;22.472;2023-02-28T00:38:54;101716.89;;;-1.86;75.83
34034;BME280;63481;52.588;22.472;2023-02-28T00:39:47;101717.98;;;-1.86;75.71
34034;BME280;63481;52.588;22.472;2023-02-28T00:40:42;101716.27;;;-1.84;75.15
34034;BME280;63481;52.588;22.472;2023-02-28T00:41:37;101717.79;;;-1.86;75.08
34034;BME280;63481;52.588;22.472;2023-02-28T00:42:30;101718.55;;;-1.93;75.37
34034;BME280;63481;52.588;22.472;2023-02-28T00:43:22;101719.52;;;-1.98;75.96
34034;BME280;63481;52.588;22.472;2023-02-28T00:44:15;101720.30;;;-1.93;75.48
34034;BME280;63481;52.588;22.472;2023-02-28T00:45:08;101722.48;;;-1.89;75.84
34034;BME280;63481;52.588;22.472;2023-02-28T00:46:04;101723.15;;;-1.91;75.22
34034;BME280;63481;52.588;22.472;2023-02-28T00:46:58;101724.02;;;-1.91;74.58
34034;BME280;63481;52.588;22.472;2023-02-28T00:47:51;101723.80;;;-1.97;74.60
34034;BME280;63481;52.588;22.472;2023-02-28T00:48:44;101725.80;;;-1.95;75.82
34034;BME280;63481;52.588;22.472;2023-02-28T00:49:36;101722.30;;;-1.95;76.36
34034;BME280;63481;52.588;22.472;2023-02-28T00:50:29;101728.35;;;-1.94;76.39
34034;BME280;63481;52.588;22.472;2023-02-28T00:51:23;101724.58;;;-1.95;76.15
34034;BME280;63481;52.588;22.472;2023-02-28T00:52:16;101727.23;;;-1.95;76.01
34034;BME280;63481;52.588;22.472;2023-02-28T00:53:08;101729.52;;;-1.99;75.86
34034;BME280;63481;52.588;22.472;2023-02-28T00:54:01;101729.45;;;-2.03;76.00
34034;BME280;63481;52.588;22.472;2023-02-28T00:54:54;101736.61;;;-2.07;75.94
34034;BME280;63481;52.588;22.472;2023-02-28T00:55:48;101735.23;;;-2.10;76.32
34034;BME280;63481;52.588;22.472;2023-02-28T00:56:41;101735.47;;;-2.11;76.46
34034;BME280;63481;52.588;22.472;2023-02-28T00:57:34;101737.74;;;-2.11;76.46
34034;BME280;63481;52.588;22.472;2023-02-28T00:58:27;101737.31;;;-2.12;76.56
34034;BME280;63481;52.588;22.472;2023-02-28T00:59:20;101734.41;;;-2.14;76.74
34034;BME280;63481;52.588;22.472;2023-02-28T01:00:15;101734.15;;;-2.15;76.77
34034;BME280;63481;52.588;22.472;2023-02-28T01:01:09;101741.35;;;-2.16;76.45
34034;BME280;63481;52.588;22.472;2023-02-28T01:02:04;101736.19;;;-2.17;76.66
34034;BME280;63481;52.588;22.472;2023-02-28T01:02:56;101734.80;;;-2.14;76.80
34034;BME280;63481;52.588;22.472;2023-02-28T01:03:49;101740.20;;;-2.06;77.21
34034;BME280;63481;52.588;22.472;2023-02-28T01:04:42;101738.85;;;-2.06;76.99
34034;BME280;63481;52.588;22.472;2023-02-28T01:05:34;101737.59;;;-2.00;76.80
34034;BME280;63481;52.588;22.472;2023-02-28T01:06:27;101735.48;;;-1.94;76.27
34034;BME280;63481;52.588;22.472;2023-02-28T01:07:20;101735.63;;;-1.96;76.26
34034;BME280;63481;52.588;22.472;2023-02-28T01:08:13;101742.05;;;-2.01;76.01
34034;BME280;63481;52.588;22.472;2023-02-28T01:09:07;101737.92;;;-2.05;75.97
34034;BME280;63481;52.588;22.472;2023-02-28T01:09:59;101736.80;;;-2.10;75.80
34034;BME280;63481;52.588;22.472;2023-02-28T01:10:52;101738.16;;;-2.15;75.15
34034;BME280;63481;52.588;22.472;2023-02-28T01:11:45;101733.86;;;-2.16;75.19
34034;BME280;63481;52.588;22.472;2023-02-28T01:12:38;101737.76;;;-2.11;74.74
34034;BME280;63481;52.588;22.472;2023-02-28T01:13:31;101735.11;;;-2.14;74.54
34034;BME280;63481;52.588;22.472;2023-02-28T01:14:24;101730.73;;;-2.16;74.71
34034;BME280;63481;52.588;22.472;2023-02-28T01:15:16;101734.77;;;-2.17;74.97
34034;BME280;63481;52.588;22.472;2023-02-28T01:16:11;101735.59;;;-2.19;75.05
34034;BME280;63481;52.588;22.472;2023-02-28T01:17:05;101735.99;;;-2.20;75.10
34034;BME280;63481;52.588;22.472;2023-02-28T01:17:58;101733.50;;;-2.22;75.34
34034;BME280;63481;52.588;22.472;2023-02-28T01:18:51;101736.17;;;-2.23;75.71
34034;BME280;63481;52.588;22.472;2023-02-28T01:19:43;101737.27;;;-2.24;75.38
34034;BME280;63481;52.588;22.472;2023-02-28T01:20:37;101736.30;;;-2.25;75.59
34034;BME280;63481;52.588;22.472;2023-02-28T01:21:30;101736.75;;;-2.27;75.68
34034;BME280;63481;52.588;22.472;2023-02-28T01:22:23;101733.17;;;-2.28;75.91
34034;BME280;63481;52.588;22.472;2023-02-28T01:23:15;101735.30;;;-2.26;76.26
34034;BME280;63481;52.588;22.472;2023-02-28T01:24:08;101738.73;;;-2.25;76.34
34034;BME280;63481;52.588;22.472;2023-02-28T01:25:01;101735.27;;;-2.25;76.68
34034;BME280;63481;52.588;22.472;2023-02-28T01:25:57;101737.56;;;-2.26;77.09
34034;BME280;63481;52.588;22.472;2023-02-28T01:26:50;101736.43;;;-2.24;77.23
34034;BME280;63481;52.588;22.472;2023-02-28T01:27:42;101734.40;;;-2.22;76.88
34034;BME280;63481;52.588;22.472;2023-02-28T01:28:35;101735.91;;;-2.21;76.67
34034;BME280;63481;52.588;22.472;2023-02-28T01:29:29;101737.16;;;-2.19;76.65
34034;BME280;63481;52.588;22.472;2023-02-28T01:30:22;101734.69;;;-2.21;76.65
34034;BME280;63481;52.588;22.472;2023-02-28T01:31:15;101734.28;;;-2.23;76.46
34034;BME280;63481;52.588;22.472;2023-02-28T01:32:08;101736.67;;;-2.22;76.75
34034;BME280;63481;52.588;22.472;2023-02-28T01:33:01;101738.92;;;-2.22;76.55
34034;BME280;63481;52.588;22.472;2023-02-28T01:33:54;101734.50;;;-2.24;76.74
34034;BME280;63481;52.588;22.472;2023-02-28T01:34:47;101735.24;;;-2.25;76.95
34034;BME280;63481;52.588;22.472;2023-02-28T01:35:39;101739.68;;;-2.23;76.96
34034;BME280;63481;52.588;22.472;2023-02-28T01:36:32;101737.16;;;-2.19;76.69
34034;BME280;63481;52.588;22.472;2023-02-28T01:37:25;101734.02;;;-2.16;76.44
34034;BME280;63481;52.588;22.472;2023-02-28T01:38:18;101737.01;;;-2.16;76.11
34034;BME280;63481;52.588;22.472;2023-02-28T01:39:10;101734.94;;;-2.17;76.13
34034;BME280;63481;52.588;22.472;2023-02-28T01:40:05;101736.05;;;-2.18;75.68
34034;BME280;63481;52.588;22.472;2023-02-28T01:40:58;101737.09;;;-2.15;75.64
34034;BME280;63481;52.588;22.472;2023-02-28T01:41:51;101736.39;;;-2.15;75.57
34034;BME280;63481;52.588;22.472;2023-02-28T01:42:44;101735.15;;;-2.17;75.47
34034;BME280;63481;52.588;22.472;2023-02-28T01:45:52;101735.80;;;-2.22;75.24
34034;BME280;63481;52.588;22.472;2023-02-28T01:46:45;101736.92;;;-2.23;75.89
34034;BME280;63481;52.588;22.472;2023-02-28T01:47:42;101736.98;;;-2.21;75.47
34034;BME280;63481;52.588;22.472;2023-02-28T01:48:51;101737.61;;;-2.23;75.50
34034;BME280;63481;52.588;22.472;2023-02-28T01:49:45;101738.51;;;-2.24;75.61
34034;BME280;63481;52.588;22.472;2023-02-28T01:50:41;101740.23;;;-2.24;75.62
34034;BME280;63481;52.588;22.472;2023-02-28T01:51:43;101741.11;;;-2.24;75.62
34034;BME280;63481;52.588;22.472;2023-02-28T01:52:38;101738.45;;;-2.26;75.66
34034;BME280;63481;52.588;22.472;2023-02-28T01:53:34;101740.09;;;-2.27;75.48
34034;BME280;63481;52.588;22.472;2023-02-28T01:54:31;101736.11;;;-2.28;75.49
34034;BME280;63481;52.588;22.472;2023-02-28T01:55:26;101740.29;;;-2.28;75.66
34034;BME280;63481;52.588;22.472;2023-02-28T01:56:27;101740.48;;;-2.28;75.67
34034;BME280;63481;52.588;22.472;2023-02-28T01:57:24;101741.17;;;-2.25;75.49
34034;BME280;63481;52.588;22.472;2023-02-28T01:58:20;101741.56;;;-2.26;75.81
34034;BME280;63481;52.588;22.472;2023-02-28T01:59:18;101743.36;;;-2.27;75.64
34034;BME280;63481;52.588;22.472;2023-02-28T02:00:15;101742.30;;;-2.29;76.01
34034;BME280;63481;52.588;22.472;2023-02-28T02:01:12;101741.79;;;-2.29;75.61
34034;BME280;63481;52.588;22.472;2023-02-28T02:02:14;101738.17;;;-2.30;75.60
34034;BME280;63481;52.588;22.472;2023-02-28T02:03:12;101738.38;;;-2.31;75.52
34034;BME280;63481;52.588;22.472;2023-02-28T02:04:05;101736.56;;;-2.29;75.48
34034;BME280;63481;52.588;22.472;2023-02-28T02:05:11;101737.23;;;-2.29;75.70
34034;BME280;63481;52.588;22.472;2023-02-28T02:06:05;101738.39;;;-2.31;75.93
34034;BME280;63481;52.588;22.472;2023-02-28T02:06:59;101740.15;;;-2.31;76.04
34034;BME280;63481;52.588;22.472;2023-02-28T02:07:57;101740.15;;;-2.31;76.48
34034;BME280;63481;52.588;22.472;2023-02-28T02:08:52;101739.33;;;-2.32;77.07
34034;BME280;63481;52.588;22.472;2023-02-28T02:09:45;101741.79;;;-2.32;77.14
34034;BME280;63481;52.588;22.472;2023-02-28T02:10:41;101741.14;;;-2.33;77.33
34034;BME280;63481;52.588;22.472;2023-02-28T02:11:36;101739.58;;;-2.33;77.41
34034;BME280;63481;52.588;22.472;2023-02-28T02:15:00;101744.28;;;-2.31;77.74
34034;BME280;63481;52.588;22.472;2023-02-28T02:18:30;101742.16;;;-2.33;78.13
34034;BME280;63481;52.588;22.472;2023-02-28T02:19:46;101741.97;;;-2.33;78.02
34034;BME280;63481;52.588;22.472;2023-02-28T02:21:03;101742.64;;;-2.32;78.05
34034;BME280;63481;52.588;22.472;2023-02-28T02:22:17;101742.33;;;-2.33;77.78
34034;BME280;63481;52.588;22.472;2023-02-28T02:27:22;101740.66;;;-2.31;77.42
34034;BME280;63481;52.588;22.472;2023-02-28T02:30:57;101741.33;;;-2.31;77.87
34034;BME280;63481;52.588;22.472;2023-02-28T02:33:06;101739.70;;;-2.30;78.32
34034;BME280;63481;52.588;22.472;2023-02-28T02:37:51;101745.76;;;-2.29;78.57
34034;BME280;63481;52.588;22.472;2023-02-28T02:42:24;101747.32;;;-2.32;78.40
34034;BME280;63481;52.588;22.472;2023-02-28T02:43:24;101746.79;;;-2.31;78.66
34034;BME280;63481;52.588;22.472;2023-02-28T02:44:27;101744.18;;;-2.32;78.68
34034;BME280;63481;52.588;22.472;2023-02-28T02:45:27;101745.25;;;-2.32;78.39
34034;BME280;63481;52.588;22.472;2023-02-28T02:46:34;101744.98;;;-2.33;78.13
34034;BME280;63481;52.588;22.472;2023-02-28T02:47:30;101747.55;;;-2.33;77.69
34034;BME280;63481;52.588;22.472;2023-02-28T02:48:28;101743.95;;;-2.28;77.14
34034;BME280;63481;52.588;22.472;2023-02-28T02:49:30;101744.48;;;-2.28;77.03
34034;BME280;63481;52.588;22.472;2023-02-28T02:50:26;101743.69;;;-2.29;76.87
34034;BME280;63481;52.588;22.472;2023-02-28T02:51:24;101745.23;;;-2.28;76.65
34034;BME280;63481;52.588;22.472;2023-02-28T02:52:23;101744.41;;;-2.29;76.71
34034;BME280;63481;52.588;22.472;2023-02-28T02:53:22;101743.05;;;-2.30;77.03
34034;BME280;63481;52.588;22.472;2023-02-28T02:54:21;101742.90;;;-2.30;76.85
34034;BME280;63481;52.588;22.472;2023-02-28T02:55:17;101744.55;;;-2.32;76.84
34034;BME280;63481;52.588;22.472;2023-02-28T02:56:12;101743.74;;;-2.33;77.21
34034;BME280;63481;52.588;22.472;2023-02-28T02:57:11;101744.25;;;-2.33;76.94
34034;BME280;63481;52.588;22.472;2023-02-28T02:58:10;101743.04;;;-2.33;77.44
34034;BME280;63481;52.588;22.472;2023-02-28T02:59:07;101744.24;;;-2.33;77.37
34034;BME280;63481;52.588;22.472;2023-02-28T03:00:04;101740.38;;;-2.32;77.19
34034;BME280;63481;52.588;22.472;2023-02-28T03:01:02;101742.75;;;-2.31;77.34
34034;BME280;63481;52.588;22.472;2023-02-28T03:02:00;101742.30;;;-2.32;77.35
34034;BME280;63481;52.588;22.472;2023-02-28T03:02:54;101735.89;;;-2.33;77.66
34034;BME280;63481;52.588;22.472;2023-02-28T03:03:48;101736.77;;;-2.33;77.79
34034;BME280;63481;52.588;22.472;2023-02-28T03:05:03;101733.79;;;-2.33;77.51
34034;BME280;63481;52.588;22.472;2023-02-28T03:05:59;101735.07;;;-2.31;77.36
34034;BME280;63481;52.588;22.472;2023-02-28T03:06:53;101737.11;;;-2.30;77.31
34034;BME280;63481;52.588;22.472;2023-02-28T03:07:47;101734.73;;;-2.28;77.36
34034;BME280;63481;52.588;22.472;2023-02-28T03:08:40;101738.98;;;-2.26;77.42
34034;BME280;63481;52.588;22.472;2023-02-28T03:09:34;101736.05;;;-2.26;77.58
34034;BME280;63481;52.588;22.472;2023-02-28T03:10:35;101735.89;;;-2.27;77.65
34034;BME280;63481;52.588;22.472;2023-02-28T03:11:29;101734.73;;;-2.25;77.74
34034;BME280;63481;52.588;22.472;2023-02-28T03:12:32;101737.80;;;-2.24;77.99
34034;BME280;63481;52.588;22.472;2023-02-28T03:17:46;101733.48;;;-2.24;77.56
34034;BME280;63481;52.588;22.472;2023-02-28T03:23:42;101741.50;;;-2.28;77.79
34034;BME280;63481;52.588;22.472;2023-02-28T03:24:45;101736.56;;;-2.29;78.58
34034;BME280;63481;52.588;22.472;2023-02-28T03:27:31;101744.86;;;-2.31;77.78
34034;BME280;63481;52.588;22.472;2023-02-28T03:30:15;101742.55;;;-2.33;78.12
34034;BME280;63481;52.588;22.472;2023-02-28T03:32:26;101743.61;;;-2.36;78.14
34034;BME280;63481;52.588;22.472;2023-02-28T03:33:24;101742.87;;;-2.39;77.10
34034;BME280;63481;52.588;22.472;2023-02-28T03:34:22;101742.50;;;-2.39;77.66
34034;BME280;63481;52.588;22.472;2023-02-28T03:35:21;101742.00;;;-2.39;77.73
34034;BME280;63481;52.588;22.472;2023-02-28T03:36:18;101743.89;;;-2.39;78.10
34034;BME280;63481;52.588;22.472;2023-02-28T03:37:16;101743.98;;;-2.37;78.39
34034;BME280;63481;52.588;22.472;2023-02-28T03:38:17;101745.72;;;-2.34;78.75
34034;BME280;63481;52.588;22.472;2023-02-28T03:39:25;101743.64;;;-2.34;78.19
34034;BME280;63481;52.588;22.472;2023-02-28T03:40:23;101743.81;;;-2.34;77.63
34034;BME280;63481;52.588;22.472;2023-02-28T03:41:23;101744.85;;;-2.34;77.84
34034;BME280;63481;52.588;22.472;2023-02-28T03:42:23;101745.70;;;-2.34;78.33
34034;BME280;63481;52.588;22.472;2023-02-28T03:43:23;101745.13;;;-2.33;78.72
34034;BME280;63481;52.588;22.472;2023-02-28T03:44:25;101745.15;;;-2.33;78.83
34034;BME280;63481;52.588;22.472;2023-02-28T03:45:29;101748.09;;;-2.33;78.83
34034;BME280;63481;52.588;22.472;2023-02-28T03:46:27;101747.30;;;-2.31;78.91
34034;BME280;63481;52.588;22.472;2023-02-28T03:47:27;101747.58;;;-2.30;78.48
34034;BME280;63481;52.588;22.472;2023-02-28T03:48:26;101748.90;;;-2.29;78.23
34034;BME280;63481;52.588;22.472;2023-02-28T03:49:23;101745.46;;;-2.30;78.08
34034;BME280;63481;52.588;22.472;2023-02-28T03:50:24;101746.33;;;-2.33;77.65
34034;BME280;63481;52.588;22.472;2023-02-28T03:51:22;101744.75;;;-2.32;77.29
34034;BME280;63481;52.588;22.472;2023-02-28T03:52:18;101746.63;;;-2.35;77.21
34034;BME280;63481;52.588;22.472;2023-02-28T03:53:19;101748.44;;;-2.36;77.21
34034;BME280;63481;52.588;22.472;2023-02-28T03:54:19;101749.73;;;-2.37;77.13
34034;BME280;63481;52.588;22.472;2023-02-28T03:55:16;101750.11;;;-2.38;77.08
34034;BME280;63481;52.588;22.472;2023-02-28T03:58:41;101750.70;;;-2.36;77.10
34034;BME280;63481;52.588;22.472;2023-02-28T03:59:39;101753.77;;;-2.38;77.09
34034;BME280;63481;52.588;22.472;2023-02-28T04:00:38;101753.21;;;-2.37;77.29
34034;BME280;63481;52.588;22.472;2023-02-28T04:02:28;101753.39;;;-2.41;77.43
34034;BME280;63481;52.588;22.472;2023-02-28T04:03:21;101748.80;;;-2.39;77.02
34034;BME280;63481;52.588;22.472;2023-02-28T04:04:14;101751.41;;;-2.39;77.07
34034;BME280;63481;52.588;22.472;2023-02-28T04:05:08;101749.17;;;-2.40;77.28
34034;BME280;63481;52.588;22.472;2023-02-28T04:06:02;101752.07;;;-2.39;77.36
34034;BME280;63481;52.588;22.472;2023-02-28T04:07:07;101750.11;;;-2.38;77.50
34034;BME280;63481;52.588;22.472;2023-02-28T04:08:04;101751.67;;;-2.38;77.22
34034;BME280;63481;52.588;22.472;2023-02-28T04:08:58;101755.64;;;-2.34;77.47
34034;BME280;63481;52.588;22.472;2023-02-28T04:09:51;101757.32;;;-2.33;77.57
34034;BME280;63481;52.588;22.472;2023-02-28T04:10:49;101754.78;;;-2.25;77.22
34034;BME280;63481;52.588;22.472;2023-02-28T04:11:51;101758.13;;;-2.17;76.63
34034;BME280;63481;52.588;22.472;2023-02-28T04:12:44;101758.03;;;-2.12;76.95
34034;BME280;63481;52.588;22.472;2023-02-28T04:13:37;101756.69;;;-2.07;76.34
34034;BME280;63481;52.588;22.472;2023-02-28T04:14:30;101756.13;;;-2.15;76.53
34034;BME280;63481;52.588;22.472;2023-02-28T04:15:23;101759.27;;;-2.21;76.56
34034;BME280;63481;52.588;22.472;2023-02-28T04:16:17;101760.66;;;-2.25;77.20
34034;BME280;63481;52.588;22.472;2023-02-28T04:17:09;101764.38;;;-2.22;77.02
34034;BME280;63481;52.588;22.472;2023-02-28T04:18:02;101762.76;;;-2.16;77.00
34034;BME280;63481;52.588;22.472;2023-02-28T04:18:55;101764.31;;;-2.15;76.63
34034;BME280;63481;52.588;22.472;2023-02-28T04:19:54;101764.02;;;-2.16;77.07
34034;BME280;63481;52.588;22.472;2023-02-28T04:20:49;101764.09;;;-2.20;77.20
34034;BME280;63481;52.588;22.472;2023-02-28T04:21:44;101762.91;;;-2.24;77.22
34034;BME280;63481;52.588;22.472;2023-02-28T04:22:37;101763.66;;;-2.25;76.97
34034;BME280;63481;52.588;22.472;2023-02-28T04:23:30;101765.20;;;-2.25;77.18
34034;BME280;63481;52.588;22.472;2023-02-28T04:24:27;101764.42;;;-2.29;77.30
34034;BME280;63481;52.588;22.472;2023-02-28T04:25:20;101764.91;;;-2.32;77.36
34034;BME280;63481;52.588;22.472;2023-02-28T04:26:12;101763.95;;;-2.30;77.53
34034;BME280;63481;52.588;22.472;2023-02-28T04:27:05;101766.27;;;-2.28;77.38
34034;BME280;63481;52.588;22.472;2023-02-28T04:27:58;101766.50;;;-2.32;78.01
34034;BME280;63481;52.588;22.472;2023-02-28T04:28:51;101767.58;;;-2.36;78.26
34034;BME280;63481;52.588;22.472;2023-02-28T04:29:43;101768.75;;;-2.38;78.45
34034;BME280;63481;52.588;22.472;2023-02-28T04:30:37;101768.02;;;-2.37;78.29
34034;BME280;63481;52.588;22.472;2023-02-28T04:31:30;101768.98;;;-2.36;78.20
34034;BME280;63481;52.588;22.472;2023-02-28T04:32:23;101770.41;;;-2.36;78.04
34034;BME280;63481;52.588;22.472;2023-02-28T04:33:16;101768.23;;;-2.38;78.20
34034;BME280;63481;52.588;22.472;2023-02-28T04:34:08;101765.79;;;-2.38;78.42
34034;BME280;63481;52.588;22.472;2023-02-28T04:35:01;101766.80;;;-2.34;78.27
34034;BME280;63481;52.588;22.472;2023-02-28T04:36:02;101764.11;;;-2.36;78.13
34034;BME280;63481;52.588;22.472;2023-02-28T04:36:56;101766.69;;;-2.35;78.29
34034;BME280;63481;52.588;22.472;2023-02-28T04:37:49;101767.02;;;-2.29;77.98
34034;BME280;63481;52.588;22.472;2023-02-28T04:38:42;101767.52;;;-2.32;77.79
34034;BME280;63481;52.588;22.472;2023-02-28T04:39:36;101768.51;;;-2.31;78.25
34034;BME280;63481;52.588;22.472;2023-02-28T04:40:29;101770.25;;;-2.34;78.38
34034;BME280;63481;52.588;22.472;2023-02-28T04:41:22;101768.88;;;-2.34;78.20
34034;BME280;63481;52.588;22.472;2023-02-28T04:42:15;101769.62;;;-2.32;77.74
34034;BME280;63481;52.588;22.472;2023-02-28T04:43:08;101771.05;;;-2.36;78.12
34034;BME280;63481;52.588;22.472;2023-02-28T04:44:00;101768.53;;;-2.37;78.14
34034;BME280;63481;52.588;22.472;2023-02-28T04:44:53;101775.23;;;-2.38;78.03
34034;BME280;63481;52.588;22.472;2023-02-28T04:45:46;101769.11;;;-2.32;78.06
34034;BME280;63481;52.588;22.472;2023-02-28T04:46:39;101769.67;;;-2.33;78.06
34034;BME280;63481;52.588;22.472;2023-02-28T04:47:31;101773.23;;;-2.37;78.21
34034;BME280;63481;52.588;22.472;2023-02-28T04:48:25;101775.42;;;-2.39;78.15
34034;BME280;63481;52.588;22.472;2023-02-28T04:49:19;101774.66;;;-2.41;78.61
34034;BME280;63481;52.588;22.472;2023-02-28T04:50:12;101776.20;;;-2.40;78.49
34034;BME280;63481;52.588;22.472;2023-02-28T04:51:11;101779.80;;;-2.40;78.48
34034;BME280;63481;52.588;22.472;2023-02-28T04:52:04;101776.08;;;-2.35;78.49
34034;BME280;63481;52.588;22.472;2023-02-28T04:52:57;101775.36;;;-2.31;78.37
34034;BME280;63481;52.588;22.472;2023-02-28T04:53:50;101775.88;;;-2.35;78.29
34034;BME280;63481;52.588;22.472;2023-02-28T04:54:42;101773.11;;;-2.32;78.08
34034;BME280;63481;52.588;22.472;2023-02-28T04:55:35;101772.52;;;-2.34;77.98
34034;BME280;63481;52.588;22.472;2023-02-28T04:56:28;101776.67;;;-2.33;78.26
34034;BME280;63481;52.588;22.472;2023-02-28T04:57:20;101776.74;;;-2.35;78.00
34034;BME280;63481;52.588;22.472;2023-02-28T04:58:14;101776.69;;;-2.34;78.28
34034;BME280;63481;52.588;22.472;2023-02-28T04:59:06;101776.61;;;-2.32;78.34
34034;BME280;63481;52.588;22.472;2023-02-28T04:59:59;101778.67;;;-2.32;78.37
34034;BME280;63481;52.588;22.472;2023-02-28T05:00:52;101777.77;;;-2.34;78.37
34034;BME280;63481;52.588;22.472;2023-02-28T05:01:47;101777.16;;;-2.33;78.40
34034;BME280;63481;52.588;22.472;2023-02-28T05:02:41;101777.22;;;-2.31;78.43
34034;BME280;63481;52.588;22.472;2023-02-28T05:03:33;101776.20;;;-2.25;78.20
34034;BME280;63481;52.588;22.472;2023-02-28T05:04:26;101778.48;;;-2.26;78.34
34034;BME280;63481;52.588;22.472;2023-02-28T05:05:19;101777.67;;;-2.27;78.22
34034;BME280;63481;52.588;22.472;2023-02-28T05:06:13;101774.31;;;-2.29;78.10
34034;BME280;63481;52.588;22.472;2023-02-28T05:07:06;101775.52;;;-2.28;77.96
34034;BME280;63481;52.588;22.472;2023-02-28T05:07:58;101774.95;;;-2.28;77.76
34034;BME280;63481;52.588;22.472;2023-02-28T05:08:51;101774.65;;;-2.32;78.04
34034;BME280;63481;52.588;22.472;2023-02-28T05:09:45;101777.73;;;-2.34;78.03
34034;BME280;63481;52.588;22.472;2023-02-28T05:10:39;101780.21;;;-2.38;78.34
34034;BME280;63481;52.588;22.472;2023-02-28T05:11:34;101780.07;;;-2.38;78.61
34034;BME280;63481;52.588;22.472;2023-02-28T05:12:28;101782.48;;;-2.41;78.52
34034;BME280;63481;52.588;22.472;2023-02-28T05:13:20;101781.84;;;-2.38;78.47
34034;BME280;63481;52.588;22.472;2023-02-28T05:14:14;101784.66;;;-2.39;78.09
34034;BME280;63481;52.588;22.472;2023-02-28T05:15:12;101783.00;;;-2.40;78.13
34034;BME280;63481;52.588;22.472;2023-02-28T05:16:06;101783.61;;;-2.43;78.12
34034;BME280;63481;52.588;22.472;2023-02-28T05:16:59;101782.09;;;-2.43;78.15
34034;BME280;63481;52.588;22.472;2023-02-28T05:17:51;101785.29;;;-2.42;78.45
34034;BME280;63481;52.588;22.472;2023-02-28T05:18:44;101785.00;;;-2.42;78.69
34034;BME280;63481;52.588;22.472;2023-02-28T05:19:37;101787.84;;;-2.40;78.52
34034;BME280;63481;52.588;22.472;2023-02-28T05:20:30;101784.84;;;-2.36;78.31
34034;BME280;63481;52.588;22.472;2023-02-28T05:21:26;101790.68;;;-2.35;78.13
34034;BME280;63481;52.588;22.472;2023-02-28T05:22:19;101792.52;;;-2.31;78.04
34034;BME280;63481;52.588;22.472;2023-02-28T05:23:13;101793.73;;;-2.30;77.79
34034;BME280;63481;52.588;22.472;2023-02-28T05:24:10;101794.61;;;-2.36;78.04
34034;BME280;63481;52.588;22.472;2023-02-28T05:25:04;101794.27;;;-2.40;78.07